sensor_id;sensor_type;location;lat;lon;timestamp;pressure;altitude;pressure_sealevel;temperature;humidity
75656;BME280;64252;51.094;13.714;2024-02-26T00:01:39;99110.78;;;11.22;50.05
75656;BME280;64252;51.094;13.714;2024-02-26T00:04:04;99107.56;;;11.24;50.23
75656;BME280;64252;51.094;13.714;2024-02-26T00:06:30;99107.50;;;11.27;50.24
75656;BME280;64252;51.094;13.714;2024-02-26T00:08:57;99105.59;;;11.17;50.34
75656;BME280;64252;51.094;13.714;2024-02-26T00:11:22;99099.59;;;11.15;50.21
75656;BME280;64252;51.094;13.714;2024-02-26T00:13:48;99097.31;;;11.03;50.19
75656;BME280;64252;51.094;13.714;2024-02-26T00:16:14;99099.41;;;10.99;50.88
75656;BME280;64252;51.094;13.714;2024-02-26T00:18:39;99103.38;;;11.05;50.39
75656;BME280;64252;51.094;13.714;2024-02-26T00:21:06;99103.72;;;11.07;50.70
75656;BME280;64252;51.094;13.714;2024-02-26T00:23:31;99101.28;;;11.09;50.16
75656;BME280;64252;51.094;13.714;2024-02-26T00:25:57;99090.19;;;10.95;50.81
75656;BME280;64252;51.094;13.714;2024-02-26T00:28:23;99098.06;;;11.07;49.96
75656;BME280;64252;51.094;13.714;2024-02-26T00:30:50;99091.81;;;10.92;50.43
75656;BME280;64252;51.094;13.714;2024-02-26T00:33:16;99087.00;;;10.89;50.70
75656;BME280;64252;51.094;13.714;2024-02-26T00:35:42;99094.03;;;10.78;51.12
75656;BME280;64252;51.094;13.714;2024-02-26T00:38:08;99086.59;;;10.91;50.73
75656;BME280;64252;51.094;13.714;2024-02-26T00:40:33;99086.41;;;11.05;50.10
75656;BME280;64252;51.094;13.714;2024-02-26T00:42:59;99083.56;;;10.75;50.76
75656;BME280;64252;51.094;13.714;2024-02-26T00:45:25;99082.56;;;10.92;50.27
75656;BME280;64252;51.094;13.714;2024-02-26T00:47:50;99080.28;;;10.80;50.92
75656;BME280;64252;51.094;13.714;2024-02-26T00:50:16;99082.09;;;10.97;50.10
75656;BME280;64252;51.094;13.714;2024-02-26T00:52:42;99075.84;;;10.79;50.59
75656;BME280;64252;51.094;13.714;2024-02-26T00:55:08;99078.31;;;10.77;50.74
75656;BME280;64252;51.094;13.714;2024-02-26T00:57:33;99076.19;;;10.50;51.44
75656;BME280;64252;51.094;13.714;2024-02-26T01:00:00;99072.84;;;10.63;51.20
75656;BME280;64252;51.094;13.714;2024-02-26T01:02:26;99069.97;;;10.66;50.53
75656;BME280;64252;51.094;13.714;2024-02-26T01:04:52;99071.63;;;10.64;51.22
75656;BME280;64252;51.094;13.714;2024-02-26T01:07:19;99072.53;;;10.87;50.18
75656;BME280;64252;51.094;13.714;2024-02-26T01:09:44;99076.38;;;10.70;50.87
75656;BME280;64252;51.094;13.714;2024-02-26T01:12:10;99072.66;;;10.77;50.62
75656;BME280;64252;51.094;13.714;2024-02-26T01:14:35;99073.81;;;10.79;50.36
75656;BME280;64252;51.094;13.714;2024-02-26T01:17:01;99062.19;;;10.74;50.54
75656;BME280;64252;51.094;13.714;2024-02-26T01:19:26;99065.50;;;10.69;50.53
75656;BME280;64252;51.094;13.714;2024-02-26T01:21:53;99068.69;;;10.71;50.42
75656;BME280;64252;51.094;13.714;2024-02-26T01:24:18;99058.59;;;10.73;50.51
75656;BME280;64252;51.094;13.714;2024-02-26T01:26:44;99062.38;;;10.60;50.74
75656;BME280;64252;51.094;13.714;2024-02-26T01:29:10;99060.34;;;10.64;50.91
75656;BME280;64252;51.094;13.714;2024-02-26T01:31:36;99057.88;;;10.66;50.64
75656;BME280;64252;51.094;13.714;2024-02-26T01:34:01;99043.41;;;10.64;50.89
75656;BME280;64252;51.094;13.714;2024-02-26T01:36:27;99036.44;;;9.97;52.35
75656;BME280;64252;51.094;13.714;2024-02-26T01:38:53;99049.63;;;10.48;51.08
75656;BME280;64252;51.094;13.714;2024-02-26T01:41:18;99042.84;;;10.42;51.47
75656;BME280;64252;51.094;13.714;2024-02-26T01:43:44;99042.63;;;10.60;50.99
75656;BME280;64252;51.094;13.714;2024-02-26T01:46:12;99042.94;;;10.69;50.18
75656;BME280;64252;51.094;13.714;2024-02-26T01:48:42;99030.06;;;10.64;50.43
75656;BME280;64252;51.094;13.714;2024-02-26T01:51:08;99042.88;;;10.38;51.32
75656;BME280;64252;51.094;13.714;2024-02-26T01:53:35;99037.94;;;10.08;51.94
75656;BME280;64252;51.094;13.714;2024-02-26T01:56:01;99027.09;;;10.44;51.19
75656;BME280;64252;51.094;13.714;2024-02-26T01:58:28;99027.00;;;10.51;50.48
75656;BME280;64252;51.094;13.714;2024-02-26T02:00:55;99026.34;;;10.40;50.93
75656;BME280;64252;51.094;13.714;2024-02-26T02:03:21;99022.31;;;10.38;51.12
75656;BME280;64252;51.094;13.714;2024-02-26T02:05:47;99010.69;;;10.36;50.90
75656;BME280;64252;51.094;13.714;2024-02-26T02:08:13;99018.53;;;10.51;50.53
75656;BME280;64252;51.094;13.714;2024-02-26T02:10:41;99017.03;;;10.43;50.85
75656;BME280;64252;51.094;13.714;2024-02-26T02:13:07;99020.88;;;10.26;51.17
75656;BME280;64252;51.094;13.714;2024-02-26T02:15:33;99018.41;;;10.28;50.84
75656;BME280;64252;51.094;13.714;2024-02-26T02:17:58;99013.81;;;10.04;51.72
75656;BME280;64252;51.094;13.714;2024-02-26T02:20:32;99009.91;;;10.32;50.80
75656;BME280;64252;51.094;13.714;2024-02-26T02:22:58;99017.25;;;10.22;50.79
75656;BME280;64252;51.094;13.714;2024-02-26T02:25:24;99008.47;;;10.13;50.91
75656;BME280;64252;51.094;13.714;2024-02-26T02:27:50;99016.09;;;10.20;50.94
75656;BME280;64252;51.094;13.714;2024-02-26T02:30:16;99021.78;;;10.16;50.85
75656;BME280;64252;51.094;13.714;2024-02-26T02:32:42;99013.28;;;9.79;52.31
75656;BME280;64252;51.094;13.714;2024-02-26T02:35:08;99006.53;;;10.06;51.23
75656;BME280;64252;51.094;13.714;2024-02-26T02:37:34;99008.25;;;9.97;51.34
75656;BME280;64252;51.094;13.714;2024-02-26T02:39:59;99010.22;;;10.00;51.30
75656;BME280;64252;51.094;13.714;2024-02-26T02:42:26;99009.88;;;9.98;51.59
75656;BME280;64252;51.094;13.714;2024-02-26T02:44:51;99001.75;;;10.00;51.42
75656;BME280;64252;51.094;13.714;2024-02-26T02:47:17;98999.63;;;9.74;51.81
75656;BME280;64252;51.094;13.714;2024-02-26T02:49:42;99000.38;;;9.78;51.77
75656;BME280;64252;51.094;13.714;2024-02-26T02:52:08;98998.88;;;9.69;52.75
75656;BME280;64252;51.094;13.714;2024-02-26T02:54:33;99008.25;;;9.97;51.71
75656;BME280;64252;51.094;13.714;2024-02-26T02:56:59;99000.34;;;9.81;52.24
75656;BME280;64252;51.094;13.714;2024-02-26T02:59:25;99011.56;;;9.88;51.33
75656;BME280;64252;51.094;13.714;2024-02-26T03:01:50;99006.22;;;9.56;51.74
75656;BME280;64252;51.094;13.714;2024-02-26T03:04:16;99014.84;;;9.80;51.73
75656;BME280;64252;51.094;13.714;2024-02-26T03:06:41;99009.41;;;9.99;51.09
75656;BME280;64252;51.094;13.714;2024-02-26T03:09:08;99016.63;;;10.04;50.94
75656;BME280;64252;51.094;13.714;2024-02-26T03:11:33;99013.84;;;10.00;51.18
75656;BME280;64252;51.094;13.714;2024-02-26T03:13:59;99012.69;;;9.94;51.12
75656;BME280;64252;51.094;13.714;2024-02-26T03:16:24;99011.56;;;9.88;50.67
75656;BME280;64252;51.094;13.714;2024-02-26T03:18:50;99014.31;;;9.54;51.79
75656;BME280;64252;51.094;13.714;2024-02-26T03:21:15;99011.53;;;9.92;50.99
75656;BME280;64252;51.094;13.714;2024-02-26T03:23:41;99014.81;;;9.87;51.13
75656;BME280;64252;51.094;13.714;2024-02-26T03:26:06;99013.84;;;10.00;51.00
75656;BME280;64252;51.094;13.714;2024-02-26T03:28:34;99021.66;;;9.86;51.42
75656;BME280;64252;51.094;13.714;2024-02-26T03:31:00;99017.97;;;9.92;50.75
75656;BME280;64252;51.094;13.714;2024-02-26T03:33:26;99026.94;;;9.84;51.14
75656;BME280;64252;51.094;13.714;2024-02-26T03:35:51;99031.84;;;9.73;51.38
75656;BME280;64252;51.094;13.714;2024-02-26T03:38:17;99031.25;;;9.92;51.15
75656;BME280;64252;51.094;13.714;2024-02-26T03:40:42;99033.25;;;9.95;50.55
75656;BME280;64252;51.094;13.714;2024-02-26T03:43:08;99039.00;;;9.81;50.91
75656;BME280;64252;51.094;13.714;2024-02-26T03:45:33;99044.56;;;9.91;50.95
75656;BME280;64252;51.094;13.714;2024-02-26T03:47:59;99040.06;;;9.97;51.04
75656;BME280;64252;51.094;13.714;2024-02-26T03:50:24;99033.53;;;10.04;50.77
75656;BME280;64252;51.094;13.714;2024-02-26T03:52:50;99042.28;;;9.76;51.71
75656;BME280;64252;51.094;13.714;2024-02-26T03:55:15;99031.38;;;9.33;52.50
75656;BME280;64252;51.094;13.714;2024-02-26T03:57:43;99030.75;;;9.59;52.33
75656;BME280;64252;51.094;13.714;2024-02-26T04:00:09;99042.19;;;9.86;51.40
75656;BME280;64252;51.094;13.714;2024-02-26T04:02:38;99044.19;;;9.86;51.57
75656;BME280;64252;51.094;13.714;2024-02-26T04:05:04;99043.34;;;9.92;50.75
75656;BME280;64252;51.094;13.714;2024-02-26T04:07:30;99043.84;;;9.84;51.52
75656;BME280;64252;51.094;13.714;2024-02-26T04:09:56;99040.63;;;9.82;51.71
75656;BME280;64252;51.094;13.714;2024-02-26T04:12:22;99038.13;;;9.91;51.16
75656;BME280;64252;51.094;13.714;2024-02-26T04:14:47;99044.59;;;9.88;51.43
75656;BME280;64252;51.094;13.714;2024-02-26T04:17:13;99046.66;;;9.84;51.53
75656;BME280;64252;51.094;13.714;2024-02-26T04:19:38;99045.78;;;9.90;51.12
75656;BME280;64252;51.094;13.714;2024-02-26T04:22:04;99043.84;;;9.84;51.18
75656;BME280;64252;51.094;13.714;2024-02-26T04:24:30;99051.75;;;9.96;51.06
75656;BME280;64252;51.094;13.714;2024-02-26T04:26:56;99042.31;;;9.72;51.73
75656;BME280;64252;51.094;13.714;2024-02-26T04:29:21;99036.97;;;9.40;52.39
75656;BME280;64252;51.094;13.714;2024-02-26T04:31:47;99047.28;;;9.57;52.12
75656;BME280;64252;51.094;13.714;2024-02-26T04:34:13;99044.09;;;9.52;52.29
75656;BME280;64252;51.094;13.714;2024-02-26T04:36:39;99042.84;;;9.60;51.72
75656;BME280;64252;51.094;13.714;2024-02-26T04:39:04;99049.22;;;9.67;51.27
75656;BME280;64252;51.094;13.714;2024-02-26T04:41:30;99046.19;;;9.89;50.65
75656;BME280;64252;51.094;13.714;2024-02-26T04:43:55;99049.09;;;9.82;51.16
75656;BME280;64252;51.094;13.714;2024-02-26T04:46:21;99048.72;;;9.76;51.17
75656;BME280;64252;51.094;13.714;2024-02-26T04:48:49;99046.66;;;9.84;50.93
75656;BME280;64252;51.094;13.714;2024-02-26T04:51:27;99053.88;;;9.85;50.92
75656;BME280;64252;51.094;13.714;2024-02-26T04:53:55;99047.34;;;9.47;51.88
75656;BME280;64252;51.094;13.714;2024-02-26T04:56:21;99054.84;;;9.67;51.53
75656;BME280;64252;51.094;13.714;2024-02-26T04:58:47;99048.31;;;9.78;51.12
75656;BME280;64252;51.094;13.714;2024-02-26T05:01:13;99064.06;;;9.72;51.15
75656;BME280;64252;51.094;13.714;2024-02-26T05:03:39;99061.31;;;9.61;51.59
75656;BME280;64252;51.094;13.714;2024-02-26T05:06:05;99057.88;;;9.39;52.10
75656;BME280;64252;51.094;13.714;2024-02-26T05:08:30;99062.66;;;9.49;51.88
75656;BME280;64252;51.094;13.714;2024-02-26T05:10:57;99066.53;;;9.69;51.09
75656;BME280;64252;51.094;13.714;2024-02-26T05:13:23;99071.94;;;9.43;51.68
75656;BME280;64252;51.094;13.714;2024-02-26T05:15:48;99068.22;;;9.56;51.38
75656;BME280;64252;51.094;13.714;2024-02-26T05:18:17;99080.00;;;9.44;52.24
75656;BME280;64252;51.094;13.714;2024-02-26T05:20:43;99075.75;;;9.15;53.13
75656;BME280;64252;51.094;13.714;2024-02-26T05:23:09;99081.22;;;9.40;52.11
75656;BME280;64252;51.094;13.714;2024-02-26T05:25:37;99080.16;;;9.71;51.01
75656;BME280;64252;51.094;13.714;2024-02-26T05:28:03;99069.00;;;9.60;51.43
75656;BME280;64252;51.094;13.714;2024-02-26T05:30:28;99073.25;;;9.31;51.84
75656;BME280;64252;51.094;13.714;2024-02-26T05:32:54;99078.50;;;9.25;52.36
75656;BME280;64252;51.094;13.714;2024-02-26T05:35:19;99076.47;;;9.30;52.11
75656;BME280;64252;51.094;13.714;2024-02-26T05:37:45;99080.91;;;9.27;51.90
75656;BME280;64252;51.094;13.714;2024-02-26T05:40:12;99086.19;;;9.21;52.57
75656;BME280;64252;51.094;13.714;2024-02-26T05:42:38;99082.84;;;9.37;51.87
75656;BME280;64252;51.094;13.714;2024-02-26T05:45:04;99082.06;;;9.33;52.49
75656;BME280;64252;51.094;13.714;2024-02-26T05:47:35;99083.13;;;9.53;51.69
75656;BME280;64252;51.094;13.714;2024-02-26T05:50:04;99087.72;;;9.30;52.54
75656;BME280;64252;51.094;13.714;2024-02-26T05:52:30;99098.06;;;9.50;52.26
75656;BME280;64252;51.094;13.714;2024-02-26T05:54:56;99092.19;;;9.27;52.46
75656;BME280;64252;51.094;13.714;2024-02-26T05:57:22;99091.19;;;9.51;52.14
75656;BME280;64252;51.094;13.714;2024-02-26T05:59:47;99097.84;;;9.75;51.52
75656;BME280;64252;51.094;13.714;2024-02-26T06:02:13;99098.66;;;9.76;51.85
75656;BME280;64252;51.094;13.714;2024-02-26T06:04:38;99095.41;;;9.81;51.66
75656;BME280;64252;51.094;13.714;2024-02-26T06:07:04;99095.28;;;9.95;51.03
75656;BME280;64252;51.094;13.714;2024-02-26T06:09:30;99097.78;;;9.86;51.16
75656;BME280;64252;51.094;13.714;2024-02-26T06:11:56;99097.38;;;9.87;51.15
75656;BME280;64252;51.094;13.714;2024-02-26T06:14:22;99094.59;;;9.84;51.34
75656;BME280;64252;51.094;13.714;2024-02-26T06:16:48;99092.84;;;9.97;51.51
75656;BME280;64252;51.094;13.714;2024-02-26T06:19:14;99092.13;;;9.86;51.50
75656;BME280;64252;51.094;13.714;2024-02-26T06:21:40;99093.97;;;10.06;51.44
75656;BME280;64252;51.094;13.714;2024-02-26T06:24:05;99100.75;;;10.12;50.99
75656;BME280;64252;51.094;13.714;2024-02-26T06:26:31;99102.84;;;10.49;49.88
75656;BME280;64252;51.094;13.714;2024-02-26T06:28:58;99102.25;;;10.28;51.00
75656;BME280;64252;51.094;13.714;2024-02-26T06:31:24;99102.06;;;10.01;51.72
75656;BME280;64252;51.094;13.714;2024-02-26T06:33:53;99102.50;;;10.78;50.08
75656;BME280;64252;51.094;13.714;2024-02-26T06:36:19;99100.28;;;10.92;50.35
75656;BME280;64252;51.094;13.714;2024-02-26T06:38:45;99103.66;;;11.14;49.69
75656;BME280;64252;51.094;13.714;2024-02-26T06:41:10;99106.44;;;10.84;50.12
75656;BME280;64252;51.094;13.714;2024-02-26T06:43:37;99102.72;;;11.21;50.01
75656;BME280;64252;51.094;13.714;2024-02-26T06:46:02;99098.19;;;11.57;49.26
75656;BME280;64252;51.094;13.714;2024-02-26T06:48:28;99102.22;;;11.83;48.61
75656;BME280;64252;51.094;13.714;2024-02-26T06:50:53;99096.09;;;11.88;48.57
75656;BME280;64252;51.094;13.714;2024-02-26T06:53:19;99098.97;;;11.84;48.61
75656;BME280;64252;51.094;13.714;2024-02-26T06:55:44;99093.00;;;12.02;48.33
75656;BME280;64252;51.094;13.714;2024-02-26T06:58:10;99094.53;;;12.30;48.04
75656;BME280;64252;51.094;13.714;2024-02-26T07:00:36;99087.50;;;12.18;47.47
75656;BME280;64252;51.094;13.714;2024-02-26T07:03:01;99087.06;;;12.40;47.75
75656;BME280;64252;51.094;13.714;2024-02-26T07:05:27;99099.81;;;12.51;47.32
75656;BME280;64252;51.094;13.714;2024-02-26T07:07:53;99098.28;;;12.47;47.50
75656;BME280;64252;51.094;13.714;2024-02-26T07:10:19;99106.72;;;12.70;47.29
75656;BME280;64252;51.094;13.714;2024-02-26T07:12:44;99102.22;;;12.92;47.18
75656;BME280;64252;51.094;13.714;2024-02-26T07:15:10;99113.56;;;12.92;47.03
75656;BME280;64252;51.094;13.714;2024-02-26T07:17:36;99112.03;;;13.07;46.97
75656;BME280;64252;51.094;13.714;2024-02-26T07:20:02;99109.94;;;13.11;46.74
75656;BME280;64252;51.094;13.714;2024-02-26T07:22:30;99100.75;;;13.24;46.85
75656;BME280;64252;51.094;13.714;2024-02-26T07:24:55;99105.78;;;13.36;45.63
75656;BME280;64252;51.094;13.714;2024-02-26T07:27:21;99100.50;;;13.54;45.88
75656;BME280;64252;51.094;13.714;2024-02-26T07:29:46;99104.66;;;13.49;46.58
75656;BME280;64252;51.094;13.714;2024-02-26T07:32:12;99100.94;;;13.16;46.88
75656;BME280;64252;51.094;13.714;2024-02-26T07:34:40;99103.94;;;13.61;46.31
75656;BME280;64252;51.094;13.714;2024-02-26T07:37:11;99105.31;;;13.73;45.73
75656;BME280;64252;51.094;13.714;2024-02-26T07:39:36;99109.09;;;13.50;45.82
75656;BME280;64252;51.094;13.714;2024-02-26T07:42:02;99106.34;;;13.63;45.79
75656;BME280;64252;51.094;13.714;2024-02-26T07:44:28;99105.41;;;13.70;45.44
75656;BME280;64252;51.094;13.714;2024-02-26T07:46:54;99100.16;;;14.17;45.29
75656;BME280;64252;51.094;13.714;2024-02-26T07:49:19;99103.97;;;13.78;45.62
75656;BME280;64252;51.094;13.714;2024-02-26T07:51:45;99098.59;;;13.47;46.56
75656;BME280;64252;51.094;13.714;2024-02-26T07:54:10;99106.16;;;13.70;45.95
75656;BME280;64252;51.094;13.714;2024-02-26T07:56:36;99102.41;;;13.93;45.66
75656;BME280;64252;51.094;13.714;2024-02-26T07:59:02;99099.06;;;14.27;45.20
75656;BME280;64252;51.094;13.714;2024-02-26T08:01:27;99106.34;;;14.28;45.39
75656;BME280;64252;51.094;13.714;2024-02-26T08:03:53;99104.88;;;14.07;45.71
75656;BME280;64252;51.094;13.714;2024-02-26T08:06:19;99105.84;;;14.49;45.12
75656;BME280;64252;51.094;13.714;2024-02-26T08:08:44;99115.22;;;14.46;45.41
75656;BME280;64252;51.094;13.714;2024-02-26T08:11:11;99110.47;;;15.01;44.14
75656;BME280;64252;51.094;13.714;2024-02-26T08:13:36;99111.66;;;15.16;43.60
75656;BME280;64252;51.094;13.714;2024-02-26T08:16:02;99118.44;;;15.06;44.04
75656;BME280;64252;51.094;13.714;2024-02-26T08:18:28;99109.63;;;15.42;44.00
75656;BME280;64252;51.094;13.714;2024-02-26T08:20:53;99104.91;;;15.10;44.74
75656;BME280;64252;51.094;13.714;2024-02-26T08:23:19;99113.84;;;15.37;44.33
75656;BME280;64252;51.094;13.714;2024-02-26T08:25:44;99113.31;;;15.01;45.42
75656;BME280;64252;51.094;13.714;2024-02-26T08:28:09;99117.88;;;15.52;44.49
75656;BME280;64252;51.094;13.714;2024-02-26T08:30:38;99122.16;;;15.03;45.86
75656;BME280;64252;51.094;13.714;2024-02-26T08:33:04;99118.09;;;15.04;45.58
75656;BME280;64252;51.094;13.714;2024-02-26T08:35:29;99121.13;;;15.38;45.17
75656;BME280;64252;51.094;13.714;2024-02-26T08:37:55;99123.63;;;15.36;45.76
75656;BME280;64252;51.094;13.714;2024-02-26T08:40:21;99121.19;;;16.14;43.81
75656;BME280;64252;51.094;13.714;2024-02-26T08:42:46;99116.72;;;16.13;44.13
75656;BME280;64252;51.094;13.714;2024-02-26T08:45:12;99116.19;;;15.67;44.86
75656;BME280;64252;51.094;13.714;2024-02-26T08:47:40;99117.78;;;15.94;44.61
75656;BME280;64252;51.094;13.714;2024-02-26T08:50:06;99123.41;;;16.32;44.52
75656;BME280;64252;51.094;13.714;2024-02-26T08:52:32;99120.63;;;16.53;43.95
75656;BME280;64252;51.094;13.714;2024-02-26T08:54:58;99123.94;;;16.05;44.43
75656;BME280;64252;51.094;13.714;2024-02-26T08:57:24;99126.66;;;15.70;46.04
75656;BME280;64252;51.094;13.714;2024-02-26T08:59:52;99111.63;;;15.82;45.79
75656;BME280;64252;51.094;13.714;2024-02-26T09:02:17;99129.22;;;16.41;44.58
75656;BME280;64252;51.094;13.714;2024-02-26T09:04:45;99120.31;;;16.51;43.83
75656;BME280;64252;51.094;13.714;2024-02-26T09:07:10;99123.69;;;15.74;45.93
75656;BME280;64252;51.094;13.714;2024-02-26T09:09:36;99120.31;;;16.39;44.23
75656;BME280;64252;51.094;13.714;2024-02-26T09:12:02;99112.88;;;16.66;43.96
75656;BME280;64252;51.094;13.714;2024-02-26T09:14:28;99112.25;;;16.37;44.75
75656;BME280;64252;51.094;13.714;2024-02-26T09:16:53;99110.63;;;16.61;43.86
75656;BME280;64252;51.094;13.714;2024-02-26T09:19:21;99117.38;;;16.77;43.94
75656;BME280;64252;51.094;13.714;2024-02-26T09:21:46;99111.09;;;16.47;44.06
75656;BME280;64252;51.094;13.714;2024-02-26T09:24:12;99112.56;;;16.52;43.47
75656;BME280;64252;51.094;13.714;2024-02-26T09:26:38;99114.13;;;16.65;43.66
75656;BME280;64252;51.094;13.714;2024-02-26T09:29:04;99112.88;;;15.94;44.84
75656;BME280;64252;51.094;13.714;2024-02-26T09:31:30;99112.38;;;16.81;43.76
75656;BME280;64252;51.094;13.714;2024-02-26T09:33:56;99117.56;;;17.47;42.21
75656;BME280;64252;51.094;13.714;2024-02-26T09:36:21;99125.75;;;17.36;42.12
75656;BME280;64252;51.094;13.714;2024-02-26T09:38:47;99126.75;;;18.53;40.37
75656;BME280;64252;51.094;13.714;2024-02-26T09:41:16;99124.63;;;18.26;40.36
75656;BME280;64252;51.094;13.714;2024-02-26T09:43:44;99131.59;;;16.89;42.74
75656;BME280;64252;51.094;13.714;2024-02-26T09:46:11;99121.94;;;17.92;41.18
75656;BME280;64252;51.094;13.714;2024-02-26T09:48:37;99121.56;;;17.81;41.26
75656;BME280;64252;51.094;13.714;2024-02-26T09:51:03;99126.53;;;17.59;41.50
75656;BME280;64252;51.094;13.714;2024-02-26T09:53:30;99127.47;;;17.55;41.53
75656;BME280;64252;51.094;13.714;2024-02-26T09:55:57;99122.75;;;17.92;41.52
75656;BME280;64252;51.094;13.714;2024-02-26T09:58:25;99123.97;;;17.82;42.03
75656;BME280;64252;51.094;13.714;2024-02-26T10:00:56;99127.72;;;19.05;39.47
75656;BME280;64252;51.094;13.714;2024-02-26T10:03:28;99119.28;;;17.97;40.92
75656;BME280;64252;51.094;13.714;2024-02-26T10:05:56;99126.53;;;18.38;40.38
75656;BME280;64252;51.094;13.714;2024-02-26T10:08:23;99136.78;;;19.12;38.87
75656;BME280;64252;51.094;13.714;2024-02-26T10:10:52;99140.25;;;18.62;39.57
75656;BME280;64252;51.094;13.714;2024-02-26T10:13:19;99140.69;;;17.93;40.66
75656;BME280;64252;51.094;13.714;2024-02-26T10:15:45;99139.16;;;18.10;40.83
75656;BME280;64252;51.094;13.714;2024-02-26T10:18:11;99140.22;;;18.53;40.34
75656;BME280;64252;51.094;13.714;2024-02-26T10:20:36;99132.78;;;17.44;41.71
75656;BME280;64252;51.094;13.714;2024-02-26T10:23:03;99145.53;;;18.72;39.71
75656;BME280;64252;51.094;13.714;2024-02-26T10:25:29;99139.66;;;19.12;38.55
75656;BME280;64252;51.094;13.714;2024-02-26T10:27:59;99144.72;;;18.63;40.02
75656;BME280;64252;51.094;13.714;2024-02-26T10:30:30;99148.53;;;19.33;38.78
75656;BME280;64252;51.094;13.714;2024-02-26T10:32:56;99140.28;;;19.07;38.35
75656;BME280;64252;51.094;13.714;2024-02-26T10:35:23;99140.44;;;19.04;38.45
75656;BME280;64252;51.094;13.714;2024-02-26T10:37:50;99140.81;;;19.84;37.95
75656;BME280;64252;51.094;13.714;2024-02-26T10:40:16;99146.16;;;19.58;37.72
75656;BME280;64252;51.094;13.714;2024-02-26T10:42:42;99136.75;;;19.30;38.48
75656;BME280;64252;51.094;13.714;2024-02-26T10:45:09;99139.31;;;19.38;37.92
75656;BME280;64252;51.094;13.714;2024-02-26T10:47:35;99145.84;;;20.88;35.88
75656;BME280;64252;51.094;13.714;2024-02-26T10:50:02;99137.41;;;20.37;36.06
75656;BME280;64252;51.094;13.714;2024-02-26T10:52:31;99145.63;;;19.69;37.77
75656;BME280;64252;51.094;13.714;2024-02-26T10:55:05;99141.44;;;20.30;36.31
75656;BME280;64252;51.094;13.714;2024-02-26T10:57:37;99145.81;;;20.07;36.89
75656;BME280;64252;51.094;13.714;2024-02-26T11:00:05;99142.41;;;18.30;39.84
75656;BME280;64252;51.094;13.714;2024-02-26T11:02:35;99140.03;;;19.75;37.16
75656;BME280;64252;51.094;13.714;2024-02-26T11:05:05;99132.66;;;19.22;38.14
75656;BME280;64252;51.094;13.714;2024-02-26T11:07:31;99134.53;;;19.16;38.27
75656;BME280;64252;51.094;13.714;2024-02-26T11:10:02;99136.63;;;18.89;38.90
75656;BME280;64252;51.094;13.714;2024-02-26T11:12:29;99132.28;;;19.66;36.91
75656;BME280;64252;51.094;13.714;2024-02-26T11:14:55;99139.59;;;19.67;36.83
75656;BME280;64252;51.094;13.714;2024-02-26T11:17:26;99136.88;;;19.63;37.33
75656;BME280;64252;51.094;13.714;2024-02-26T11:19:53;99135.41;;;19.86;37.32
75656;BME280;64252;51.094;13.714;2024-02-26T11:22:20;99140.28;;;19.25;38.22
75656;BME280;64252;51.094;13.714;2024-02-26T11:24:48;99140.72;;;19.42;37.86
75656;BME280;64252;51.094;13.714;2024-02-26T11:27:16;99146.78;;;19.62;37.44
75656;BME280;64252;51.094;13.714;2024-02-26T11:29:51;99139.91;;;19.60;37.49
75656;BME280;64252;51.094;13.714;2024-02-26T11:32:18;99128.03;;;19.52;37.58
75656;BME280;64252;51.094;13.714;2024-02-26T11:34:44;99140.28;;;19.16;38.42
75656;BME280;64252;51.094;13.714;2024-02-26T11:37:14;99137.81;;;18.42;38.82
75656;BME280;64252;51.094;13.714;2024-02-26T11:39:41;99142.69;;;18.81;38.71
75656;BME280;64252;51.094;13.714;2024-02-26T11:42:08;99133.41;;;20.01;36.52
75656;BME280;64252;51.094;13.714;2024-02-26T11:44:34;99136.94;;;20.38;35.83
75656;BME280;64252;51.094;13.714;2024-02-26T11:49:36;99131.25;;;20.53;35.61
75656;BME280;64252;51.094;13.714;2024-02-26T11:52:05;99130.75;;;20.31;35.66
75656;BME280;64252;51.094;13.714;2024-02-26T11:57:23;99126.03;;;20.75;35.31
75656;BME280;64252;51.094;13.714;2024-02-26T11:59:49;99133.56;;;20.87;35.10
75656;BME280;64252;51.094;13.714;2024-02-26T12:02:44;99133.63;;;20.78;34.71
75656;BME280;64252;51.094;13.714;2024-02-26T12:05:14;99134.50;;;20.46;35.55
75656;BME280;64252;51.094;13.714;2024-02-26T12:07:47;99132.16;;;20.35;34.90
75656;BME280;64252;51.094;13.714;2024-02-26T12:13:11;99143.69;;;19.84;36.12
75656;BME280;64252;51.094;13.714;2024-02-26T12:15:45;99138.22;;;20.37;35.71
75656;BME280;64252;51.094;13.714;2024-02-26T12:18:16;99141.66;;;19.66;36.64
75656;BME280;64252;51.094;13.714;2024-02-26T12:20:42;99144.41;;;19.52;36.20
75656;BME280;64252;51.094;13.714;2024-02-26T12:23:16;99156.16;;;19.36;37.58
75656;BME280;64252;51.094;13.714;2024-02-26T12:25:44;99155.59;;;20.25;35.71
75656;BME280;64252;51.094;13.714;2024-02-26T12:28:14;99154.78;;;20.00;36.34
75656;BME280;64252;51.094;13.714;2024-02-26T12:30:40;99154.31;;;20.82;34.85
75656;BME280;64252;51.094;13.714;2024-02-26T12:33:05;99158.38;;;20.99;34.41
75656;BME280;64252;51.094;13.714;2024-02-26T12:35:34;99150.91;;;21.17;33.82
75656;BME280;64252;51.094;13.714;2024-02-26T12:38:03;99151.38;;;21.15;34.43
75656;BME280;64252;51.094;13.714;2024-02-26T12:40:29;99151.72;;;21.32;33.83
75656;BME280;64252;51.094;13.714;2024-02-26T12:42:55;99148.16;;;20.98;34.94
75656;BME280;64252;51.094;13.714;2024-02-26T12:45:21;99154.28;;;21.30;34.09
75656;BME280;64252;51.094;13.714;2024-02-26T12:47:47;99143.56;;;21.16;34.27
75656;BME280;64252;51.094;13.714;2024-02-26T12:50:15;99141.16;;;21.97;32.65
75656;BME280;64252;51.094;13.714;2024-02-26T12:52:46;99146.97;;;21.43;33.86
75656;BME280;64252;51.094;13.714;2024-02-26T12:55:17;99146.19;;;22.16;32.73
75656;BME280;64252;51.094;13.714;2024-02-26T12:57:44;99157.50;;;21.76;33.64